Time;durP1;ratioP1;P1;durP2;ratioP2;P2;SDS_P1;SDS_P2;PMS_P1;PMS_P2;Temp;Humidity;BMP_temperature;BMP_pressure;BME280_temperature;BME280_humidity;BME280_pressure;Samples;Min_cycle;Max_cycle;Signal;HPM_P1;HPM_P2
2024/03/28 00:00:00;;;;;;;8.30;3.70;;;;;;;6.15;83.14;99326.66;4921600;29;20055;-70
2024/03/28 00:02:30;;;;;;;6.37;3.27;;;;;;;6.15;82.32;99316.09;4921440;29;20055;-70
2024/03/28 00:05:00;;;;;;;6.73;3.63;;;;;;;6.12;80.84;99321.66;4922942;28;20047;-70
2024/03/28 00:07:26;;;;;;;7.57;3.50;;;;;;;6.11;80.71;99323.44;4937404;28;20051;-70
2024/03/28 00:09:54;;;;;;;11.37;4.10;;;;;;;6.09;81.19;99325.38;4940446;28;20169;-71
2024/03/28 00:12:20;;;;;;;6.83;3.90;;;;;;;6.08;80.79;99323.72;4940322;28;20197;-70
2024/03/28 00:14:46;;;;;;;8.40;3.30;;;;;;;6.15;80.49;99318.75;5043134;28;20584;-70
2024/03/28 00:17:13;;;;;;;5.93;3.17;;;;;;;6.16;80.28;99326.50;5018229;28;20140;-71
2024/03/28 00:19:41;;;;;;;9.10;4.00;;;;;;;6.12;80.51;99317.19;4975691;28;20054;-73
2024/03/28 00:22:07;;;;;;;9.37;3.20;;;;;;;6.14;79.74;99319.69;4991768;28;20058;-72
2024/03/28 00:24:35;;;;;;;5.13;3.17;;;;;;;6.18;79.02;99329.00;4971382;28;20372;-71
2024/03/28 00:27:01;;;;;;;10.17;3.27;;;;;;;6.18;78.04;99324.53;4956047;28;20051;-71
2024/03/28 00:29:27;;;;;;;7.70;3.80;;;;;;;6.19;77.76;99320.13;4939455;29;20162;-71
2024/03/28 00:31:53;;;;;;;10.80;3.60;;;;;;;6.19;77.47;99331.50;4950779;28;20055;-70
2024/03/28 00:34:19;;;;;;;5.83;3.00;;;;;;;6.21;76.78;99329.53;4934164;29;21017;-70
2024/03/28 00:36:45;;;;;;;6.23;3.73;;;;;;;6.22;77.29;99335.66;4934270;29;20055;-70
2024/03/28 00:39:11;;;;;;;8.40;3.77;;;;;;;6.21;77.89;99340.09;4949832;29;20077;-70
2024/03/28 00:41:38;;;;;;;10.70;3.60;;;;;;;6.19;78.11;99347.31;4914399;29;20095;-73
2024/03/28 00:44:04;;;;;;;6.27;3.43;;;;;;;6.17;78.74;99343.97;4930897;29;20198;-71
2024/03/28 00:46:32;;;;;;;7.80;3.37;;;;;;;6.10;81.08;99342.88;4914420;29;20044;-71
2024/03/28 00:48:58;;;;;;;7.53;3.80;;;;;;;6.02;81.01;99340.09;4898556;29;20052;-71
2024/03/28 00:51:24;;;;;;;7.97;3.50;;;;;;;6.00;82.32;99336.75;4914739;29;20067;-71
2024/03/28 00:53:49;;;;;;;8.03;3.90;;;;;;;5.93;82.03;99340.91;4929992;29;20044;-72
2024/03/28 00:56:16;;;;;;;8.77;4.10;;;;;;;5.89;82.69;99342.13;4952138;28;20062;-71
2024/03/28 00:58:46;;;;;;;9.00;3.73;;;;;;;5.86;84.29;99344.22;4955868;28;20042;-71
2024/03/28 01:01:15;;;;;;;10.17;4.53;;;;;;;5.83;86.11;99347.09;4971115;28;20405;-71
2024/03/28 01:03:47;;;;;;;10.23;4.13;;;;;;;5.91;88.23;99345.47;4972299;28;20076;-70
2024/03/28 01:06:14;;;;;;;9.73;4.90;;;;;;;5.71;88.57;99356.91;4978702;28;20483;-71
2024/03/28 01:08:44;;;;;;;9.17;4.10;;;;;;;5.81;87.28;99349.84;4978004;28;20049;-71
2024/03/28 01:11:10;;;;;;;17.55;5.47;;;;;;;5.66;87.06;99340.66;4977833;28;20057;-71
2024/03/28 01:13:40;;;;;;;21.73;7.43;;;;;;;5.65;87.23;99348.69;4945394;28;20130;-70
2024/03/28 01:16:08;;;;;;;18.67;6.10;;;;;;;5.64;87.37;99347.03;4978273;28;20049;-73
2024/03/28 01:18:34;;;;;;;17.03;6.10;;;;;;;5.64;87.34;99350.50;4981020;28;20111;-70
2024/03/28 01:21:04;;;;;;;17.70;6.67;;;;;;;5.79;87.58;99354.44;5014430;28;20484;-70
2024/03/28 01:23:30;;;;;;;19.70;6.40;;;;;;;5.68;87.35;99349.28;5014186;28;20052;-70
2024/03/28 01:26:02;;;;;;;14.23;5.13;;;;;;;5.81;87.82;99354.31;4981748;28;20059;-70
2024/03/28 01:28:28;;;;;;;14.17;4.97;;;;;;;5.64;88.17;99352.31;5014495;28;20483;-69
2024/03/28 01:31:04;;;;;;;9.57;4.47;;;;;;;5.76;88.84;99359.13;5014919;28;20056;-70
2024/03/28 01:33:31;;;;;;;13.67;5.30;;;;;;;5.64;89.32;99352.31;5015113;28;20096;-69
2024/03/28 01:35:57;;;;;;;11.73;4.53;;;;;;;5.59;90.36;99355.34;4981618;28;20055;-70
2024/03/28 01:38:23;;;;;;;11.93;4.57;;;;;;;5.54;91.67;99352.28;4957860;28;20096;-70
2024/03/28 01:40:50;;;;;;;10.53;4.63;;;;;;;5.49;93.54;99345.75;4974044;28;20058;-70
2024/03/28 01:43:17;;;;;;;9.93;4.20;;;;;;;5.46;94.14;99341.56;4942330;28;20078;-71
2024/03/28 01:45:43;;;;;;;9.00;4.27;;;;;;;5.44;94.07;99343.50;4942084;28;20100;-72
2024/03/28 01:48:09;;;;;;;9.83;4.33;;;;;;;5.39;95.37;99339.59;4957827;28;20097;-72
2024/03/28 01:50:35;;;;;;;11.83;4.50;;;;;;;5.41;96.12;99337.66;4941931;28;20077;-72
2024/03/28 01:53:02;;;;;;;6.63;4.13;;;;;;;5.37;96.44;99336.25;4939399;28;20058;-72
2024/03/28 01:55:28;;;;;;;11.33;4.37;;;;;;;5.31;96.43;99337.63;4938927;28;20468;-72
2024/03/28 01:57:59;;;;;;;11.03;4.03;;;;;;;5.39;96.46;99332.53;4922819;28;20141;-72
2024/03/28 02:00:25;;;;;;;10.93;3.70;;;;;;;5.31;96.25;99335.00;4923532;28;20051;-72
2024/03/28 02:02:51;;;;;;;11.40;4.43;;;;;;;5.32;97.40;99338.47;4922423;28;20050;-72
2024/03/28 02:05:17;;;;;;;10.77;4.37;;;;;;;5.31;97.02;99335.00;4922502;28;20505;-71
2024/03/28 02:07:43;;;;;;;10.03;3.80;;;;;;;5.33;96.99;99340.97;4922803;28;20477;-71
2024/03/28 02:10:09;;;;;;;9.73;3.60;;;;;;;5.35;98.80;99339.00;5003022;28;20091;-73
2024/03/28 02:12:35;;;;;;;7.90;3.70;;;;;;;5.34;100.00;99334.72;5012648;28;20099;-72
2024/03/28 02:15:05;;;;;;;8.37;4.50;;;;;;;5.31;100.00;99344.69;4996344;28;20064;-72
2024/03/28 02:17:32;;;;;;;9.87;4.13;;;;;;;5.26;100.00;99326.66;5013039;28;20194;-71
2024/03/28 02:19:58;;;;;;;8.03;4.13;;;;;;;5.25;100.00;99335.53;4996521;28;20045;-71
2024/03/28 02:22:25;;;;;;;13.43;5.27;;;;;;;5.22;100.00;99330.53;4980147;28;20038;-72
2024/03/28 02:25:02;;;;;;;12.33;4.80;;;;;;;5.35;100.00;99331.13;5013290;28;20135;-72
2024/03/28 02:27:30;;;;;;;11.80;4.87;;;;;;;5.21;100.00;99332.31;4977185;28;20062;-72
2024/03/28 02:29:56;;;;;;;21.13;6.57;;;;;;;5.16;100.00;99339.78;4976920;28;20058;-71
2024/03/28 02:32:21;;;;;;;14.40;5.60;;;;;;;5.20;100.00;99340.34;4960882;28;20489;-71
2024/03/28 02:34:47;;;;;;;11.80;5.57;;;;;;;5.15;100.00;99335.47;4976762;28;20136;-71
2024/03/28 02:37:13;;;;;;;12.00;4.40;;;;;;;5.10;100.00;99334.22;4993067;28;20145;-73
2024/03/28 02:39:39;;;;;;;10.23;4.87;;;;;;;5.07;100.00;99345.00;4993576;28;20045;-72
2024/03/28 02:42:05;;;;;;;12.63;5.53;;;;;;;5.02;100.00;99336.66;4993183;28;20085;-71
2024/03/28 02:44:31;;;;;;;12.20;5.17;;;;;;;5.01;100.00;99348.16;5009330;28;20088;-72
2024/03/28 02:46:58;;;;;;;11.00;5.13;;;;;;;4.98;100.00;99346.59;4961583;28;20057;-72
2024/03/28 02:49:24;;;;;;;11.50;4.97;;;;;;;4.93;100.00;99346.19;4938922;28;20117;-71
2024/03/28 02:51:51;;;;;;;12.73;5.63;;;;;;;5.00;100.00;99354.38;4920847;28;20612;-72
2024/03/28 02:54:16;;;;;;;9.13;4.87;;;;;;;4.87;100.00;99351.13;4923293;28;20050;-72
2024/03/28 02:56:42;;;;;;;11.27;5.03;;;;;;;4.82;100.00;99354.13;4956104;28;20186;-69
2024/03/28 02:59:08;;;;;;;10.70;4.57;;;;;;;4.80;100.00;99347.31;4970519;28;20248;-71
2024/03/28 03:01:34;;;;;;;9.60;5.07;;;;;;;4.75;100.00;99352.97;4960357;28;20124;-68
2024/03/28 03:04:04;;;;;;;10.40;5.10;;;;;;;4.73;100.00;99359.31;4961138;28;20058;-68
2024/03/28 03:06:30;;;;;;;10.47;4.90;;;;;;;4.70;100.00;99354.31;4993644;28;20084;-69
2024/03/28 03:08:56;;;;;;;7.40;4.07;;;;;;;4.72;100.00;99352.41;4977407;28;20050;-68
2024/03/28 03:11:21;;;;;;;10.57;4.10;;;;;;;4.73;100.00;99354.06;4993685;28;20089;-72
2024/03/28 03:13:48;;;;;;;10.13;4.90;;;;;;;4.70;100.00;99356.94;4976634;28;20058;-73
2024/03/28 03:16:14;;;;;;;8.77;4.30;;;;;;;4.69;100.00;99355.28;4933319;28;20058;-72
2024/03/28 03:18:40;;;;;;;11.40;4.37;;;;;;;4.69;100.00;99365.81;4973570;28;20046;-71
2024/03/28 03:21:09;;;;;;;11.10;5.43;;;;;;;4.67;100.00;99365.09;5005419;28;20058;-75
2024/03/28 03:23:38;;;;;;;7.30;4.33;;;;;;;4.71;100.00;99371.75;4997205;28;20707;-73
2024/03/28 03:26:19;;;;;;;9.80;4.60;;;;;;;4.65;100.00;99378.38;4996912;28;20085;-73
2024/03/28 03:37:02;;;;;;;9.87;5.00;;;;;;;4.79;100.00;99374.59;4993586;28;20493;-73
2024/03/28 03:39:28;;;;;;;11.30;5.40;;;;;;;4.86;100.00;99378.38;4993593;28;20039;-74
2024/03/28 03:41:58;;;;;;;17.30;6.80;;;;;;;4.83;100.00;99373.38;4993952;28;20524;-75
2024/03/28 03:44:24;;;;;;;10.77;5.20;;;;;;;4.92;100.00;99375.25;4960985;28;20377;-74
2024/03/28 03:46:49;;;;;;;8.87;5.60;;;;;;;4.99;100.00;99374.59;5015733;28;20062;-75
2024/03/28 03:49:16;;;;;;;11.30;5.27;;;;;;;5.03;100.00;99376.00;4996462;28;20066;-75
2024/03/28 03:51:42;;;;;;;11.80;4.57;;;;;;;5.12;100.00;99374.38;5014257;28;20151;-77
2024/03/28 03:54:08;;;;;;;13.53;5.50;;;;;;;5.20;100.00;99379.81;4998639;28;20042;-75
2024/03/28 03:56:34;;;;;;;14.53;6.10;;;;;;;5.23;100.00;99374.31;5012288;28;20547;-73
2024/03/28 03:59:01;;;;;;;10.77;5.23;;;;;;;5.34;100.00;99373.38;4995242;28;20042;-72
2024/03/28 04:01:27;;;;;;;13.87;5.73;;;;;;;5.35;100.00;99381.16;5011622;28;20057;-72
2024/03/28 04:03:54;;;;;;;12.73;5.20;;;;;;;5.47;100.00;99374.00;4980012;28;20038;-77
2024/03/28 04:06:20;;;;;;;11.77;4.83;;;;;;;5.41;100.00;99385.91;4995509;28;20045;-74
2024/03/28 04:08:46;;;;;;;11.47;5.03;;;;;;;5.45;100.00;99379.41;5015213;28;20042;-77
2024/03/28 04:11:13;;;;;;;12.37;5.10;;;;;;;5.45;100.00;99387.31;5014117;28;20045;-76
2024/03/28 04:13:39;;;;;;;11.63;4.50;;;;;;;5.51;100.00;99380.66;5036074;28;20542;-76
2024/03/28 04:16:05;;;;;;;9.63;4.50;;;;;;;5.52;100.00;99382.34;5020218;28;20062;-77
2024/03/28 04:18:33;;;;;;;15.07;5.10;;;;;;;5.56;100.00;99378.47;4980798;28;20065;-72
2024/03/28 04:21:00;;;;;;;11.23;5.33;;;;;;;5.63;100.00;99380.44;4976386;28;20064;-73
2024/03/28 04:23:26;;;;;;;11.23;4.80;;;;;;;5.61;100.00;99390.31;4992613;28;20602;-78
2024/03/28 04:25:58;;;;;;;15.00;5.53;;;;;;;5.76;100.00;99391.59;5000023;28;20148;-74
2024/03/28 04:28:25;;;;;;;16.17;6.17;;;;;;;5.67;100.00;99384.50;5011824;28;20140;-76
2024/03/28 04:30:51;;;;;;;11.97;5.87;;;;;;;5.73;100.00;99389.22;4963027;28;20038;-75
2024/03/28 04:33:21;;;;;;;10.97;5.53;;;;;;;5.73;100.00;99391.03;4979451;28;20050;-74
2024/03/28 04:35:47;;;;;;;12.43;5.73;;;;;;;5.77;100.00;99390.63;4979090;28;20150;-74
2024/03/28 04:38:15;;;;;;;19.60;7.43;;;;;;;5.81;100.00;99396.47;4978812;28;20141;-75
2024/03/28 04:40:42;;;;;;;13.53;6.20;;;;;;;5.80;100.00;99398.25;4979436;28;20050;-75
2024/03/28 04:43:10;;;;;;;12.90;6.07;;;;;;;5.82;100.00;99401.63;4978393;28;20042;-75
2024/03/28 04:45:36;;;;;;;12.70;6.10;;;;;;;5.82;100.00;99396.34;4995201;28;20041;-75
2024/03/28 04:48:02;;;;;;;14.30;5.53;;;;;;;5.90;100.00;99404.44;4995182;28;20068;-76
2024/03/28 04:50:28;;;;;;;15.97;6.87;;;;;;;5.90;100.00;99399.16;4962895;28;20053;-75
2024/03/28 04:52:56;;;;;;;13.30;6.00;;;;;;;5.95;100.00;99391.66;5003064;28;20060;-76
2024/03/28 04:55:25;;;;;;;18.53;6.90;;;;;;;6.10;100.00;99392.13;4996740;28;20508;-74
2024/03/28 04:57:51;;;;;;;10.27;5.23;;;;;;;6.06;100.00;99382.81;4960765;28;20073;-74
2024/03/28 05:00:17;;;;;;;14.20;6.10;;;;;;;6.12;100.00;99398.91;4976624;28;20058;-75
2024/03/28 05:02:43;;;;;;;17.13;5.90;;;;;;;6.17;100.00;99401.16;4992701;28;20042;-75
2024/03/28 05:05:09;;;;;;;11.83;5.53;;;;;;;6.29;100.00;99402.69;4992076;28;20104;-74
2024/03/28 05:07:35;;;;;;;10.33;5.10;;;;;;;6.29;99.93;99397.41;4991081;28;20061;-74
2024/03/28 05:10:07;;;;;;;9.27;5.50;;;;;;;6.37;97.71;99402.84;4990706;28;20062;-75
2024/03/28 05:12:33;;;;;;;12.37;5.90;;;;;;;6.37;95.42;99408.13;4936685;28;20054;-75
2024/03/28 05:15:03;;;;;;;10.77;5.30;;;;;;;6.39;93.89;99407.03;4936594;29;20051;-74
2024/03/28 05:17:33;;;;;;;11.47;5.00;;;;;;;6.46;92.52;99404.66;4921234;29;20453;-74
2024/03/28 05:19:59;;;;;;;13.27;5.63;;;;;;;6.46;91.04;99413.41;4936801;29;20079;-75
2024/03/28 05:22:26;;;;;;;18.33;6.47;;;;;;;6.42;92.50;99411.19;4939781;28;20121;-74
2024/03/28 05:24:52;;;;;;;12.73;6.50;;;;;;;6.33;92.91;99415.50;4939119;28;20125;-74
2024/03/28 05:27:18;;;;;;;17.17;6.50;;;;;;;6.30;95.75;99414.94;4955718;28;20463;-74
2024/03/28 05:29:45;;;;;;;15.20;6.57;;;;;;;6.30;95.92;99404.38;4959637;28;20058;-74
2024/03/28 05:32:11;;;;;;;14.70;6.77;;;;;;;6.27;97.22;99408.09;4959922;28;20062;-75
2024/03/28 05:34:38;;;;;;;16.83;7.43;;;;;;;6.30;98.01;99407.84;4961559;28;20050;-75
2024/03/28 05:37:05;;;;;;;14.27;6.53;;;;;;;6.38;97.06;99404.53;4970039;28;20065;-74
2024/03/28 05:39:32;;;;;;;18.57;7.60;;;;;;;6.44;98.06;99403.97;4977504;28;20136;-74
2024/03/28 05:42:03;;;;;;;13.67;6.07;;;;;;;6.47;98.49;99407.16;4960722;28;20046;-75
2024/03/28 05:44:30;;;;;;;12.37;5.60;;;;;;;6.59;96.20;99410.50;4977701;28;20066;-74
2024/03/28 05:46:59;;;;;;;12.87;6.20;;;;;;;6.50;94.97;99412.16;4977339;28;20507;-73
2024/03/28 05:49:26;;;;;;;13.93;5.43;;;;;;;6.60;94.22;99410.38;4977040;28;20080;-74
2024/03/28 05:51:52;;;;;;;10.27;5.77;;;;;;;6.66;93.46;99408.97;5042128;28;20144;-74
2024/03/28 05:54:18;;;;;;;10.50;4.73;;;;;;;6.77;92.58;99401.75;5025360;28;20570;-74
2024/03/28 05:56:44;;;;;;;12.60;4.90;;;;;;;6.95;91.67;99403.69;5008781;28;20064;-74
2024/03/28 05:59:10;;;;;;;10.07;4.30;;;;;;;7.14;89.59;99399.19;5028064;28;20040;-74
2024/03/28 06:01:45;;;;;;;11.45;5.55;;;;;;;7.42;89.15;99405.38;5029480;28;20134;-71
2024/03/28 06:04:13;;;;;;;13.95;4.80;;;;;;;7.47;87.05;99403.16;5016675;28;20051;-71
2024/03/28 06:06:39;;;;;;;8.95;4.53;;;;;;;7.75;84.82;99394.28;5056542;28;20462;-71
2024/03/28 06:09:05;;;;;;;11.95;5.35;;;;;;;7.99;82.47;99403.34;5007811;28;20040;-72
2024/03/28 06:11:32;;;;;;;14.77;5.45;;;;;;;8.14;81.08;99406.31;5007598;28;20141;-77
2024/03/28 06:14:07;;;;;;;10.05;5.32;;;;;;;8.48;80.68;99405.56;5026208;28;20050;-73
2024/03/28 06:16:35;;;;;;;13.88;4.63;;;;;;;8.63;78.88;99405.88;5031519;28;20505;-74
2024/03/28 06:19:04;;;;;;;12.10;5.20;;;;;;;9.05;76.85;99414.00;5031520;28;20042;-74
2024/03/28 06:21:32;;;;;;;10.32;4.90;;;;;;;9.49;74.29;99416.47;5047081;28;20614;-74
2024/03/28 06:23:58;;;;;;;15.05;5.80;;;;;;;9.89;70.29;99416.69;5013916;28;20060;-74
2024/03/28 06:26:24;;;;;;;12.70;5.10;;;;;;;10.39;67.48;99421.22;5014280;28;20407;-74
2024/03/28 06:28:51;;;;;;;17.60;5.63;;;;;;;10.66;64.34;99416.47;4998460;28;20128;-73
2024/03/28 06:31:17;;;;;;;19.10;6.65;;;;;;;10.77;61.25;99425.94;5022858;28;20037;-74
2024/03/28 06:33:49;;;;;;;12.65;6.13;;;;;;;10.61;60.53;99423.28;4998708;28;20056;-74
2024/03/28 06:36:20;;;;;;;15.23;5.75;;;;;;;10.28;61.07;99438.28;5001098;28;20163;-74
2024/03/28 06:38:47;;;;;;;11.90;4.82;;;;;;;10.31;63.01;99426.50;5017474;28;20049;-74
2024/03/28 06:41:14;;;;;;;10.25;4.68;;;;;;;10.36;61.52;99433.00;5000658;28;20057;-74
2024/03/28 06:43:41;;;;;;;9.52;4.72;;;;;;;10.31;60.89;99439.78;5017072;28;20422;-74
2024/03/28 06:46:07;;;;;;;11.15;4.40;;;;;;;10.33;60.31;99435.13;4990289;28;20050;-74
2024/03/28 06:48:33;;;;;;;16.88;5.57;;;;;;;10.41;60.91;99437.81;4957351;28;20075;-74
2024/03/28 06:50:59;;;;;;;13.18;5.18;;;;;;;10.43;59.65;99435.81;4989413;28;20054;-74
2024/03/28 06:53:25;;;;;;;11.63;4.60;;;;;;;10.73;59.38;99436.03;4990617;28;20132;-75
2024/03/28 06:55:52;;;;;;;12.80;4.90;;;;;;;11.15;57.39;99438.56;5005901;28;20060;-74
2024/03/28 06:58:18;;;;;;;12.45;4.72;;;;;;;11.35;55.72;99426.59;4974850;28;20041;-74
2024/03/28 07:00:44;;;;;;;9.70;4.30;;;;;;;11.59;53.02;99435.38;5006028;28;20511;-74
2024/03/28 07:03:11;;;;;;;8.98;4.60;;;;;;;11.92;52.10;99438.00;4991367;28;20041;-74
2024/03/28 07:05:37;;;;;;;8.48;4.40;;;;;;;12.01;50.69;99428.97;4987855;28;20045;-73
2024/03/28 07:08:04;;;;;;;7.40;4.05;;;;;;;12.16;49.87;99428.09;5003830;28;20206;-72
2024/03/28 07:10:30;;;;;;;7.63;4.68;;;;;;;12.45;48.23;99430.94;5026233;28;20087;-74
2024/03/28 07:12:56;;;;;;;11.32;4.25;;;;;;;12.56;47.00;99429.72;5002283;28;20114;-74
2024/03/28 07:15:24;;;;;;;11.32;4.43;;;;;;;12.79;46.71;99428.72;5019084;28;20178;-74
2024/03/28 07:17:50;;;;;;;10.32;4.45;;;;;;;13.04;45.95;99419.56;5018734;28;20033;-74
2024/03/28 07:20:16;;;;;;;12.57;4.45;;;;;;;13.38;44.52;99419.09;5035683;28;20530;-74
2024/03/28 07:22:42;;;;;;;8.15;3.70;;;;;;;13.68;44.02;99420.81;5003983;28;20064;-76
2024/03/28 07:25:10;;;;;;;11.23;3.75;;;;;;;13.64;43.35;99413.38;5020619;28;20048;-77
2024/03/28 07:27:36;;;;;;;11.65;4.15;;;;;;;14.04;43.02;99423.59;5003874;28;20036;-76
2024/03/28 07:30:03;;;;;;;6.25;3.85;;;;;;;14.33;41.81;99412.91;5019890;28;20436;-76
2024/03/28 07:32:31;;;;;;;9.23;3.83;;;;;;;14.67;40.33;99415.72;5020208;28;20483;-74
2024/03/28 07:34:57;;;;;;;10.50;4.10;;;;;;;14.83;39.78;99416.34;5036173;28;20055;-75
2024/03/28 07:37:22;;;;;;;9.50;4.20;;;;;;;15.22;38.64;99419.38;5052783;28;20037;-74
2024/03/28 07:39:49;;;;;;;11.02;4.05;;;;;;;15.63;38.02;99411.50;5036286;28;20045;-74
2024/03/28 07:42:16;;;;;;;8.55;3.85;;;;;;;16.00;37.00;99408.44;5019654;28;20129;-75
2024/03/28 07:44:42;;;;;;;10.77;4.05;;;;;;;16.30;35.99;99414.31;5003588;28;20044;-75
2024/03/28 07:47:08;;;;;;;7.47;3.78;;;;;;;16.27;35.40;99417.41;5002331;28;20041;-75
2024/03/28 07:49:35;;;;;;;7.55;3.50;;;;;;;16.26;35.14;99411.25;5019698;28;20056;-74
2024/03/28 07:52:02;;;;;;;5.32;3.47;;;;;;;16.33;35.39;99403.22;4998608;28;20052;-74
2024/03/28 07:54:28;;;;;;;7.15;3.40;;;;;;;16.58;34.21;99409.72;5031842;28;20061;-74
2024/03/28 07:56:54;;;;;;;6.20;2.92;;;;;;;16.29;33.74;99413.53;4999052;28;20064;-74
2024/03/28 07:59:23;;;;;;;8.93;3.00;;;;;;;16.27;34.04;99402.16;4999489;28;20049;-75
2024/03/28 08:01:48;;;;;;;7.03;3.28;;;;;;;16.32;33.83;99405.09;4975874;28;20060;-75
2024/03/28 08:04:16;;;;;;;5.85;3.30;;;;;;;16.74;33.66;99406.69;4975965;28;20117;-74
2024/03/28 08:06:47;;;;;;;4.95;3.20;;;;;;;16.88;33.23;99400.31;4921339;28;20135;-75
2024/03/28 08:09:14;;;;;;;10.75;3.00;;;;;;;17.37;32.45;99402.63;4937831;29;20055;-75
2024/03/28 08:11:43;;;;;;;5.13;2.90;;;;;;;17.87;31.96;99401.97;4933759;29;20467;-75
2024/03/28 08:14:11;;;;;;;7.97;2.70;;;;;;;17.95;30.98;99399.88;4917769;29;20066;-75
2024/03/28 08:16:39;;;;;;;3.53;2.53;;;;;;;17.96;30.82;99400.69;4933527;29;20138;-75
2024/03/28 08:19:06;;;;;;;6.03;4.13;;;;;;;19.20;29.66;99400.94;4886923;29;20055;-72
2024/03/28 08:21:33;;;;;;;7.50;4.00;;;;;;;21.84;26.92;99391.75;4886694;29;20051;-75
2024/03/28 08:23:59;;;;;;;6.88;4.25;;;;;;;24.81;23.82;99385.75;4902485;29;20052;-75
2024/03/28 08:26:26;;;;;;;10.50;5.25;;;;;;;27.24;19.88;99384.19;4880471;29;20048;-75
2024/03/28 08:28:54;;;;;;;6.20;2.60;;;;;;;28.67;17.92;99377.09;4895828;29;20060;-76
2024/03/28 08:31:21;;;;;;;3.85;2.30;;;;;;;27.42;17.75;99380.94;4898154;29;20108;-76
2024/03/28 08:33:47;;;;;;;4.40;2.78;;;;;;;25.43;18.74;99386.03;4936393;28;20477;-75
2024/03/28 08:36:14;;;;;;;4.60;2.10;;;;;;;23.90;19.67;99365.78;4916700;28;20397;-76
2024/03/28 08:38:40;;;;;;;3.67;2.67;;;;;;;22.28;20.83;99385.69;4941604;28;20068;-76
2024/03/28 08:41:06;;;;;;;6.40;2.20;;;;;;;20.65;22.50;99364.13;4924098;28;20470;-75
2024/03/28 08:43:34;;;;;;;5.60;2.55;;;;;;;20.43;23.05;99372.97;4959396;28;20162;-75
2024/03/28 08:46:01;;;;;;;5.05;2.33;;;;;;;19.95;23.32;99354.84;4975111;28;20054;-75
2024/03/28 08:48:27;;;;;;;9.02;2.88;;;;;;;19.42;24.02;99353.75;4942362;28;20054;-76
2024/03/28 08:50:54;;;;;;;6.97;2.60;;;;;;;19.67;24.42;99361.78;4958910;28;20165;-75
2024/03/28 08:53:20;;;;;;;5.90;2.50;;;;;;;19.71;24.01;99353.03;4942887;28;20081;-75
2024/03/28 08:55:45;;;;;;;3.35;2.10;;;;;;;19.81;23.92;99353.34;4943024;28;20563;-75
2024/03/28 08:58:12;;;;;;;3.80;2.08;;;;;;;20.10;23.49;99340.97;4975690;28;20041;-75
2024/03/28 09:00:38;;;;;;;4.22;2.13;;;;;;;19.71;24.11;99349.53;5050161;28;20088;-75
2024/03/28 09:03:04;;;;;;;4.30;2.47;;;;;;;19.98;23.92;99340.94;5019552;28;20088;-75
2024/03/28 09:05:32;;;;;;;5.20;3.30;;;;;;;21.61;22.26;99345.78;5032347;28;20072;-75
2024/03/28 09:07:59;;;;;;;9.40;2.10;;;;;;;21.71;22.09;99351.44;5017829;28;20077;-76
2024/03/28 09:10:24;;;;;;;4.88;2.25;;;;;;;20.60;22.68;99350.53;5017571;28;20036;-75
2024/03/28 09:12:51;;;;;;;6.80;4.25;;;;;;;20.47;22.99;99341.78;5033491;28;20083;-76
2024/03/28 09:15:17;;;;;;;10.13;3.55;;;;;;;21.97;22.01;99367.19;5035406;28;20045;-75
2024/03/28 09:17:43;;;;;;;3.60;2.50;;;;;;;23.42;20.68;99350.19;5031902;28;20045;-75
2024/03/28 09:20:13;;;;;;;3.95;2.65;;;;;;;24.33;19.74;99347.69;5014125;28;20044;-75
2024/03/28 09:22:39;;;;;;;;;;;;;;;24.16;19.16;99337.94;5019056;28;20059;-76
2024/03/28 09:25:06;;;;;;;6.50;2.45;;;;;;;23.98;19.99;99338.28;5003013;28;20326;-76
2024/03/28 09:27:32;;;;;;;5.35;2.70;;;;;;;24.39;19.07;99345.84;4990274;28;20061;-75
2024/03/28 09:29:59;;;;;;;3.70;3.30;;;;;;;24.38;18.97;99319.78;5042850;28;20068;-75
2024/03/28 09:32:25;;;;;;;4.88;3.30;;;;;;;25.59;18.27;99316.25;5054160;28;20068;-75
2024/03/28 09:34:51;;;;;;;7.97;2.97;;;;;;;27.23;16.76;99314.38;5020128;28;20614;-75
2024/03/28 09:37:18;;;;;;;3.38;1.90;;;;;;;25.83;16.82;99312.88;5033260;28;20063;-75
2024/03/28 09:39:45;;;;;;;6.18;2.05;;;;;;;26.06;17.25;99304.31;5016647;28;20048;-75
2024/03/28 09:42:12;;;;;;;5.03;2.70;;;;;;;25.97;17.65;99313.22;5033889;28;20045;-75
2024/03/28 09:44:38;;;;;;;4.22;1.80;;;;;;;25.76;17.75;99297.88;5004311;28;20049;-75
2024/03/28 09:47:08;;;;;;;5.22;1.90;;;;;;;24.66;18.03;99292.41;5013391;28;20131;-75
2024/03/28 09:49:36;;;;;;;4.30;2.10;;;;;;;24.32;18.42;99296.38;5030183;28;20496;-75
2024/03/28 09:52:05;;;;;;;7.45;1.80;;;;;;;24.64;18.64;99291.81;4997421;28;20057;-75
2024/03/28 09:54:33;;;;;;;4.53;2.40;;;;;;;24.45;17.90;99304.09;4980727;28;20055;-75
2024/03/28 09:56:59;;;;;;;4.15;2.83;;;;;;;24.69;17.90;99300.03;5013580;28;20050;-75
2024/03/28 09:59:27;;;;;;;3.72;2.70;;;;;;;25.57;17.07;99297.50;4980635;28;20190;-75
2024/03/28 10:01:58;;;;;;;3.53;3.22;;;;;;;26.79;16.86;99307.78;5009840;28;20116;-75
2024/03/28 10:04:25;;;;;;;10.50;4.65;;;;;;;27.64;15.61;99297.69;4977368;28;20052;-76
2024/03/28 10:06:54;;;;;;;9.00;4.00;;;;;;;27.10;15.38;99295.81;5009737;28;20046;-76
2024/03/28 10:09:24;;;;;;;4.72;3.10;;;;;;;26.49;15.61;99309.34;5009691;28;20081;-75
2024/03/28 10:12:41;;;;;;;10.33;3.27;;;;;;;26.73;15.64;99317.06;5029722;28;20057;-75
2024/03/28 10:15:00;;;;;;;;;;;;;;;27.25;15.62;99291.22;4968509;28;20057;-75
2024/03/28 10:17:27;;;;;;;10.82;3.35;;;;;;;27.42;15.30;99293.63;5013182;28;20075;-75
2024/03/28 10:20:07;;;;;;;7.32;2.90;;;;;;;29.12;14.19;99308.47;5013408;28;20049;-75
2024/03/28 10:22:43;;;;;;;;;;;;;;;28.99;14.13;99276.25;5028898;28;20053;-76
2024/03/28 10:25:18;;;;;;;6.70;3.60;;;;;;;28.42;14.00;99278.81;5007677;28;19921;-77
2024/03/28 10:27:45;;;;;;;5.63;3.92;;;;;;;29.70;14.02;99270.97;5037384;28;20053;-75
2024/03/28 10:30:23;;;;;;;8.55;3.35;;;;;;;30.24;13.22;99279.66;5034336;28;20096;-76
2024/03/28 10:33:04;;;;;;;3.45;2.95;;;;;;;29.89;13.37;99266.38;5004358;28;20383;-75
2024/03/28 10:35:31;;;;;;;7.80;3.50;;;;;;;29.12;13.40;99268.22;5048397;28;20387;-75
2024/03/28 10:38:01;;;;;;;7.35;2.80;;;;;;;27.77;14.03;99249.88;5036275;28;20052;-75
2024/03/28 10:40:28;;;;;;;3.58;3.08;;;;;;;26.88;14.45;99265.31;5009404;28;20045;-75
2024/03/28 10:43:02;;;;;;;6.03;3.53;;;;;;;26.93;14.97;99252.50;4991188;28;20055;-76
2024/03/28 10:45:44;;;;;;;8.75;3.38;;;;;;;27.10;15.42;99222.22;5023858;28;20056;-75
2024/03/28 10:48:15;;;;;;;7.18;2.70;;;;;;;26.99;14.86;99226.03;5039384;28;20063;-75
2024/03/28 10:50:54;;;;;;;5.22;2.42;;;;;;;27.55;14.76;99225.69;5039245;28;20052;-75
2024/03/28 10:53:32;;;;;;;4.07;2.58;;;;;;;26.87;14.79;99220.06;5039425;28;20051;-75
2024/03/28 10:56:13;;;;;;;3.20;1.58;;;;;;;27.17;15.04;99218.09;5039781;28;20059;-75
2024/03/28 10:58:39;;;;;;;4.10;1.85;;;;;;;26.05;14.87;99217.47;5025013;28;20045;-75
2024/03/28 11:01:08;;;;;;;6.00;2.40;;;;;;;25.09;15.81;99228.91;5039499;28;20059;-75
2024/03/28 11:03:35;;;;;;;3.95;2.65;;;;;;;24.88;16.11;99229.84;5016579;28;20494;-75
2024/03/28 11:06:02;;;;;;;4.25;2.25;;;;;;;24.69;16.60;99213.13;5035215;28;20403;-76
2024/03/28 11:08:30;;;;;;;4.85;2.25;;;;;;;24.34;16.45;99219.00;5040329;28;20053;-74
2024/03/28 11:10:58;;;;;;;4.78;2.83;;;;;;;24.96;16.21;99194.84;5022946;28;20044;-73
2024/03/28 11:13:24;;;;;;;6.03;2.22;;;;;;;25.45;16.12;99215.28;5037892;28;20113;-73
2024/03/28 11:16:13;;;;;;;3.70;1.67;;;;;;;24.71;16.69;99186.50;5011747;28;20144;-74
2024/03/28 11:18:46;;;;;;;6.43;3.10;;;;;;;24.04;17.02;99188.03;5018393;28;20488;-75
2024/03/28 11:21:14;;;;;;;6.65;2.30;;;;;;;24.34;16.78;99193.78;5040419;28;20396;-75
2024/03/28 11:23:46;;;;;;;3.55;3.05;;;;;;;24.06;17.17;99184.00;5025835;28;20199;-75
2024/03/28 11:26:20;;;;;;;2.60;2.28;;;;;;;25.23;16.69;99206.47;5008131;28;20067;-76
2024/03/28 11:28:47;;;;;;;8.88;2.30;;;;;;;25.38;16.29;99192.16;4975734;28;20286;-75
2024/03/28 11:31:27;;;;;;;2.00;1.63;;;;;;;27.03;16.00;99199.88;5042252;28;20048;-75
2024/03/28 11:34:04;;;;;;;4.55;1.95;;;;;;;27.16;15.24;99174.75;5019373;28;20058;-76
2024/03/28 11:36:31;;;;;;;3.10;1.70;;;;;;;26.68;15.16;99176.19;4974085;28;20053;-75
2024/03/28 11:39:02;;;;;;;5.28;1.45;;;;;;;25.20;16.37;99173.53;4988283;28;20061;-75
2024/03/28 11:41:29;;;;;;;2.95;1.30;;;;;;;24.97;16.58;99179.38;5001811;28;20046;-75